»·PEaware :: UAL353 KPDX-KSFO

UAL353 :: KPDX-KSFO

FLIGHT INFORMATION

Flight Status: Arrived
Operator:
United Airlines
More flights by this operator :: More flights under this callsign
Pilot: Saso K. (7898)
Aircraft: AIRBUS A320
(A320)
More flights by this aircraft type
Origin: KPDX Portland Intl
United States
Destination: KSFO San Francisco Intl
United States
More flights between these airports :: More routes between these airports
Route: MINNE5 FAMUK Q3 FOWND MLBEC BDEGA2
File this flight plan on PilotEdge
Remarks: EET / KZOA0038
Altitude:
(Current/Filed)
35,000ft
Speed:
(Current/Filed)
432kts
Departed: 21-Aug-17 12:04 PM
Arrived: 21-Aug-17 01:32 PM
Distance/Time
Traveled:
478nm/1:28
Distance/Time
To Go:
Arrived

Flight Plot

Page will automatically refresh every two minutes.


Map Options




Map Legend


Flown Route
Filed Route
Departure Airport
Arrival Airport
Navaid (VOR, NDB)
Fix

Horizontal Profiles

Position Reports

Time Latitude Longitude Heading Altitude Ground
Speed
21-Aug-17 11:39 45.590044 -122.591048 209 26ft 0kts
21-Aug-17 11:40 45.590044 -122.591048 209 26ft 0kts
21-Aug-17 11:41 45.590044 -122.591048 209 26ft 0kts
21-Aug-17 11:42 45.590044 -122.591048 209 26ft 0kts
21-Aug-17 11:43 45.590044 -122.591048 209 26ft 0kts
21-Aug-17 11:44 45.590044 -122.591048 209 26ft 0kts
21-Aug-17 11:45 45.590044 -122.591048 209 26ft 0kts
21-Aug-17 11:46 45.590044 -122.591048 209 26ft 0kts
21-Aug-17 11:47 45.590044 -122.591048 209 26ft 0kts
21-Aug-17 11:48 45.590044 -122.591048 209 26ft 0kts
21-Aug-17 11:49 45.590044 -122.591048 209 26ft 0kts
21-Aug-17 11:50 45.590044 -122.591048 209 26ft 0kts
21-Aug-17 11:51 45.590044 -122.591048 209 26ft 0kts
21-Aug-17 11:52 45.590044 -122.591048 209 26ft 0kts
21-Aug-17 11:53 45.590044 -122.591048 209 26ft 0kts
21-Aug-17 11:54 45.590044 -122.591048 209 26ft 0kts
21-Aug-17 11:55 45.590044 -122.591048 209 26ft 0kts
21-Aug-17 11:56 45.590044 -122.591048 209 26ft 0kts
21-Aug-17 11:57 45.590075 -122.591023 209 26ft 2kts
21-Aug-17 11:58 45.590533 -122.590651 200 26ft 1kts
21-Aug-17 11:59 45.590869 -122.590886 119 26ft 0kts
21-Aug-17 12:00 45.590868 -122.590886 119 26ft 0kts
21-Aug-17 12:01 45.590868 -122.590886 119 26ft 0kts
21-Aug-17 12:02 45.590032 -122.588884 124 26ft 13kts
21-Aug-17 12:03 45.588944 -122.583820 120 26ft 14kts
21-Aug-17 12:04 45.586645 -122.577910 118 26ft 20kts
21-Aug-17 12:05 45.583736 -122.570456 117 26ft 21kts
21-Aug-17 12:06 45.582880 -122.567118 36 26ft 7kts
21-Aug-17 12:07 45.583769 -122.567285 298 26ft 16kts
21-Aug-17 12:08 45.600956 -122.610884 299 1336ft 171kts
21-Aug-17 12:09 45.620742 -122.680254 300 3567ft 232kts
21-Aug-17 12:10 45.649520 -122.750896 300 5750ft 275kts
21-Aug-17 12:11 45.666373 -122.851421 252 8874ft 291kts
21-Aug-17 12:12 45.612468 -122.923829 184 11290ft 322kts
21-Aug-17 12:13 45.522506 -122.933885 183 13248ft 356kts
21-Aug-17 12:14 45.427288 -122.944976 184 15636ft 367kts
21-Aug-17 12:15 45.327988 -122.956527 184 17786ft 377kts
21-Aug-17 12:16 45.241066 -122.966601 184 19450ft 386kts
21-Aug-17 12:17 45.136508 -122.988817 189 21249ft 395kts
21-Aug-17 12:18 45.030509 -123.013509 188 22762ft 408kts
21-Aug-17 12:19 44.921389 -123.038832 188 24018ft 422kts
21-Aug-17 12:20 44.814828 -123.063474 188 25264ft 432kts
21-Aug-17 12:21 44.699338 -123.090079 189 26591ft 438kts
21-Aug-17 12:22 44.584054 -123.116527 189 27723ft 445kts
21-Aug-17 12:23 44.469639 -123.134708 179 28719ft 453kts
21-Aug-17 12:24 44.364648 -123.130886 179 29551ft 459kts
21-Aug-17 12:25 44.263438 -123.127278 179 30412ft 462kts
21-Aug-17 12:26 44.162920 -123.123707 178 31429ft 459kts
21-Aug-17 12:27 44.054733 -123.119877 178 32431ft 458kts
21-Aug-17 12:28 43.942778 -123.115929 178 33384ft 456kts
21-Aug-17 12:29 43.843294 -123.112431 178 34163ft 456kts
21-Aug-17 12:30 43.743266 -123.108927 178 34916ft 454kts
21-Aug-17 12:31 43.632758 -123.105068 178 35113ft 454kts
21-Aug-17 12:32 43.514932 -123.100970 178 35107ft 454kts
21-Aug-17 12:33 43.395246 -123.096824 178 35109ft 454kts
21-Aug-17 12:34 43.274624 -123.092661 178 35109ft 454kts
21-Aug-17 12:35 43.153881 -123.088511 178 35108ft 455kts
21-Aug-17 12:36 43.034401 -123.084420 178 35108ft 455kts
21-Aug-17 12:37 42.910644 -123.080197 176 35109ft 467kts
21-Aug-17 12:38 42.794231 -123.076244 175 35103ft 463kts
21-Aug-17 12:39 42.673669 -123.072164 175 35100ft 464kts
21-Aug-17 12:40 42.551001 -123.068032 175 35100ft 464kts
21-Aug-17 12:41 42.430941 -123.064048 175 35100ft 464kts
21-Aug-17 12:42 42.310447 -123.060155 175 35100ft 464kts
21-Aug-17 12:43 42.189895 -123.056268 175 35101ft 464kts
21-Aug-17 12:44 42.069748 -123.052409 175 35101ft 464kts
21-Aug-17 12:45 41.951697 -123.048631 175 35109ft 464kts
21-Aug-17 12:46 41.837592 -123.044995 175 35125ft 464kts
21-Aug-17 12:47 41.725138 -123.041421 175 35139ft 465kts
21-Aug-17 12:48 41.608054 -123.037714 175 35137ft 465kts
21-Aug-17 12:49 41.487728 -123.033919 175 35137ft 465kts
21-Aug-17 12:50 41.367025 -123.030126 175 35138ft 465kts
21-Aug-17 12:51 41.245263 -123.026398 175 35138ft 465kts
21-Aug-17 12:52 41.126802 -123.022821 175 35138ft 465kts
21-Aug-17 12:53 41.001043 -123.019032 175 35048ft 466kts
21-Aug-17 12:54 40.883110 -123.015494 175 35018ft 467kts
21-Aug-17 12:55 40.760698 -123.011834 175 35020ft 466kts
21-Aug-17 12:56 40.637659 -123.008169 175 35020ft 466kts
21-Aug-17 12:57 40.514710 -123.004520 175 35020ft 465kts
21-Aug-17 12:58 40.393205 -123.000927 175 35019ft 465kts
21-Aug-17 12:59 40.271752 -122.997348 175 35025ft 465kts
21-Aug-17 13:00 40.149734 -122.993766 175 35040ft 464kts
21-Aug-17 13:01 40.024219 -122.990094 175 35057ft 464kts
21-Aug-17 13:02 39.901265 -122.986513 175 35058ft 463kts
21-Aug-17 13:03 39.798385 -122.983522 175 35064ft 463kts
21-Aug-17 13:04 39.678836 -122.980059 175 35085ft 463kts
21-Aug-17 13:05 39.559372 -122.976612 175 35084ft 462kts
21-Aug-17 13:06 39.437288 -122.973102 175 35084ft 462kts
21-Aug-17 13:07 39.314183 -122.969574 175 35085ft 462kts
21-Aug-17 13:08 39.192204 -122.966091 175 35085ft 461kts
21-Aug-17 13:09 39.069746 -122.962743 176 35085ft 461kts
21-Aug-17 13:10 38.946042 -122.960408 176 33334ft 465kts
21-Aug-17 13:11 38.831836 -122.946339 163 31033ft 461kts
21-Aug-17 13:12 38.723410 -122.914186 164 29220ft 449kts
21-Aug-17 13:13 38.608508 -122.880276 164 27221ft 437kts
21-Aug-17 13:14 38.498430 -122.847883 164 25579ft 418kts
21-Aug-17 13:15 38.391248 -122.816400 164 23673ft 405kts
21-Aug-17 13:16 38.288100 -122.786200 164 21797ft 393kts
21-Aug-17 13:17 38.187690 -122.756909 164 19913ft 382kts
21-Aug-17 13:18 38.088880 -122.728212 164 18015ft 372kts
21-Aug-17 13:19 37.994178 -122.700785 165 16177ft 361kts
21-Aug-17 13:20 37.906164 -122.674412 156 14443ft 350kts
21-Aug-17 13:21 37.842220 -122.612916 138 12833ft 339kts
21-Aug-17 13:22 37.778576 -122.545441 138 11306ft 327kts
21-Aug-17 13:23 37.720997 -122.481087 120 10996ft 290kts
21-Aug-17 13:24 37.688721 -122.397344 113 10132ft 284kts
21-Aug-17 13:25 37.659127 -122.315589 114 8842ft 279kts
21-Aug-17 13:26 37.632990 -122.239802 114 7639ft 276kts
21-Aug-17 13:27 37.606052 -122.164887 114 6266ft 282kts
21-Aug-17 13:28 37.578190 -122.090535 114 5201ft 276kts
21-Aug-17 13:29 37.528050 -122.055699 203 4504ft 256kts
21-Aug-17 13:30 37.504006 -122.112972 311 3977ft 222kts
21-Aug-17 13:31 37.532985 -122.170472 299 3276ft 205kts
21-Aug-17 13:32 37.555404 -122.224010 299 2366ft 169kts
21-Aug-17 13:33 37.575642 -122.272274 295 1533ft 145kts
21-Aug-17 13:34 37.593533 -122.315113 295 805ft 138kts
21-Aug-17 13:35 37.607750 -122.348928 294 220ft 136kts
21-Aug-17 13:36 37.621571 -122.381786 297 32ft 39kts
21-Aug-17 13:37 37.621668 -122.386668 260 32ft 6kts
21-Aug-17 13:38 37.620913 -122.387664 200 32ft 1kts
21-Aug-17 13:39 37.620700 -122.387770 201 32ft 0kts
21-Aug-17 13:40 37.620700 -122.387770 201 32ft 0kts

Navigation Log

Ident Type
1. KPDX Airport
2. RIVRR Fix
3. COSUG Fix
4. BISLE Fix
5. MINNE Fix
6. FAMUK Fix
7. FAMUK Navaid
8. FRFLY Navaid
9. FINER Navaid
10. FOWND Navaid
11. MLBEC Fix
12. JONNE Fix
13. BGGLO Fix
14. LOZIT Fix
15. BDEGA Fix
16. CORKK Fix
17. BRIXX Fix
18. KSFO Airport